createdAt,value
2023-05-19T00:00:37.217Z,11.60
2023-05-19T00:03:11.049Z,11.50
2023-05-19T00:05:46.958Z,11.52
2023-05-19T00:08:18.165Z,11.53
2023-05-19T00:10:46.969Z,11.59
2023-05-19T00:13:16.329Z,11.63
2023-05-19T00:15:48.064Z,11.59
2023-05-19T00:18:21.740Z,11.53
2023-05-19T00:20:52.661Z,11.46
2023-05-19T00:23:25.304Z,11.47
2023-05-19T00:25:54.117Z,11.50
2023-05-19T00:28:29.701Z,11.52
2023-05-19T00:31:03.001Z,11.44
2023-05-19T00:33:35.318Z,11.50
2023-05-19T00:36:14.489Z,11.50
2023-05-19T00:38:49.291Z,11.52
2023-05-19T00:41:17.976Z,11.44
2023-05-19T00:43:49.318Z,11.43
2023-05-19T00:46:21.292Z,11.44
2023-05-19T00:48:49.692Z,11.38
2023-05-19T00:51:19.855Z,11.33
2023-05-19T00:53:51.214Z,11.38
2023-05-19T00:56:24.358Z,11.38
2023-05-19T00:58:53.608Z,11.35
2023-05-19T01:01:26.894Z,11.32
2023-05-19T01:04:01.244Z,11.38
2023-05-19T01:06:31.838Z,11.42
2023-05-19T01:09:01.304Z,11.36
2023-05-19T01:11:31.523Z,11.29
2023-05-19T01:14:03.537Z,11.30
2023-05-19T01:16:38.246Z,11.26
2023-05-19T01:19:16.080Z,11.21
2023-05-19T01:22:23.051Z,11.25
2023-05-19T01:25:24.451Z,11.22
2023-05-19T01:28:22.291Z,11.19
2023-05-19T01:30:59.013Z,11.19
2023-05-19T01:33:32.681Z,11.16
2023-05-19T01:36:06.272Z,11.16
2023-05-19T01:38:35.754Z,11.25
2023-05-19T01:41:08.112Z,11.23
2023-05-19T01:43:37.649Z,11.18
2023-05-19T01:46:11.266Z,11.14
2023-05-19T01:48:42.498Z,11.16
2023-05-19T01:51:12.166Z,11.12
2023-05-19T01:53:52.710Z,11.12
2023-05-19T01:56:36.444Z,11.15
2023-05-19T01:59:16.641Z,11.12
2023-05-19T02:01:58.146Z,11.09
2023-05-19T02:04:42.349Z,11.16
2023-05-19T02:07:19.651Z,11.18
2023-05-19T02:09:54.624Z,11.18
2023-05-19T02:12:29.697Z,11.16
2023-05-19T02:15:04.714Z,11.21
2023-05-19T02:17:39.166Z,11.12
2023-05-19T02:20:15.549Z,11.15
2023-05-19T02:22:44.704Z,11.11
2023-05-19T02:25:30.850Z,11.12
2023-05-19T02:28:00.938Z,11.11
2023-05-19T02:30:32.820Z,11.14
2023-05-19T02:33:06.397Z,11.07
2023-05-19T02:35:36.713Z,11.14
2023-05-19T02:38:05.391Z,11.00
2023-05-19T02:40:33.784Z,11.00
2023-05-19T02:43:04.622Z,11.02
2023-05-19T02:45:34.152Z,11.01
2023-05-19T02:48:07.275Z,11.01
2023-05-19T02:50:37.210Z,11.02
2023-05-19T02:53:08.588Z,10.95
2023-05-19T02:55:37.488Z,10.95
2023-05-19T02:58:05.722Z,11.01
2023-05-19T03:00:35.589Z,11.04
2023-05-19T03:03:06.019Z,11.05
2023-05-19T03:05:36.840Z,11.05
2023-05-19T03:08:11.706Z,11.01
2023-05-19T03:10:46.424Z,11.01
2023-05-19T03:13:17.110Z,11.04
2023-05-19T03:15:46.520Z,11.01
2023-05-19T03:18:24.889Z,11.01
2023-05-19T03:20:55.454Z,11.01
2023-05-19T03:23:26.756Z,11.09
2023-05-19T03:25:56.085Z,11.11
2023-05-19T03:28:27.324Z,11.15
2023-05-19T03:30:57.508Z,11.22
2023-05-19T03:33:30.564Z,11.26
2023-05-19T03:36:02.138Z,11.29
2023-05-19T03:38:34.409Z,11.33
2023-05-19T03:41:04.977Z,11.38
2023-05-19T03:43:35.138Z,11.47
2023-05-19T03:46:05.769Z,11.59
2023-05-19T03:48:39.902Z,11.63
2023-05-19T03:51:13.700Z,11.69
2023-05-19T03:53:47.066Z,11.69
2023-05-19T03:56:20.810Z,11.71
2023-05-19T03:58:54.808Z,11.80
2023-05-19T04:01:25.788Z,11.74
2023-05-19T04:03:58.389Z,11.81
2023-05-19T04:06:34.098Z,11.93
2023-05-19T04:09:16.220Z,11.93
2023-05-19T04:11:46.098Z,11.94
2023-05-19T04:14:16.094Z,12.15
2023-05-19T04:16:47.568Z,12.14
2023-05-19T04:19:18.868Z,12.36
2023-05-19T04:21:47.796Z,12.42
2023-05-19T04:24:17.122Z,12.25
2023-05-19T04:26:53.360Z,12.25
2023-05-19T04:29:23.475Z,12.25
2023-05-19T04:31:54.930Z,12.50
2023-05-19T04:34:29.067Z,12.48
2023-05-19T04:36:59.235Z,12.52
2023-05-19T04:39:29.522Z,12.57
2023-05-19T04:42:02.762Z,12.55
2023-05-19T04:44:35.732Z,12.52
2023-05-19T04:47:06.423Z,12.79
2023-05-19T04:49:39.574Z,12.76
2023-05-19T04:52:13.995Z,13.11
2023-05-19T04:54:45.443Z,13.00
2023-05-19T04:57:14.121Z,13.14
2023-05-19T04:59:44.650Z,13.27
2023-05-19T05:02:13.805Z,13.41
2023-05-19T05:04:47.545Z,13.30
2023-05-19T05:07:20.206Z,13.41
2023-05-19T05:09:50.445Z,13.51
2023-05-19T05:12:20.812Z,13.65
2023-05-19T05:14:52.082Z,13.48
2023-05-19T05:17:27.723Z,13.25
2023-05-19T05:19:58.337Z,13.44
2023-05-19T05:22:27.318Z,13.51
2023-05-19T05:24:56.479Z,13.63
2023-05-19T05:27:28.987Z,13.62
2023-05-19T05:30:01.148Z,13.66
2023-05-19T05:32:29.864Z,13.59
2023-05-19T05:35:01.323Z,13.73
2023-05-19T05:37:30.351Z,14.09
2023-05-19T05:39:59.735Z,14.34
2023-05-19T05:42:30.152Z,14.42
2023-05-19T05:45:02.035Z,14.45
2023-05-19T05:47:32.702Z,14.12
2023-05-19T05:50:03.748Z,14.33
2023-05-19T05:52:34.768Z,14.19
2023-05-19T05:55:03.771Z,14.52
2023-05-19T05:57:35.767Z,14.57
2023-05-19T06:00:07.821Z,14.54
2023-05-19T06:02:38.528Z,14.91
2023-05-19T06:05:12.436Z,14.91
2023-05-19T06:07:44.188Z,15.16
2023-05-19T06:10:14.343Z,14.96
2023-05-19T06:12:44.716Z,14.99
2023-05-19T06:15:18.616Z,14.69
2023-05-19T06:17:50.248Z,15.05
2023-05-19T06:20:23.184Z,15.19
2023-05-19T06:22:52.631Z,15.70
2023-05-19T06:25:21.993Z,15.49
2023-05-19T06:27:50.655Z,15.30
2023-05-19T06:30:18.961Z,15.53
2023-05-19T06:32:47.318Z,15.92
2023-05-19T06:35:16.746Z,16.13
2023-05-19T06:37:50.397Z,16.21
2023-05-19T06:40:19.709Z,16.43
2023-05-19T06:42:49.610Z,16.33
2023-05-19T06:45:21.951Z,16.32
2023-05-19T06:47:51.175Z,16.23
2023-05-19T06:50:19.951Z,16.01
2023-05-19T06:52:58.613Z,15.87
2023-05-19T06:55:27.412Z,16.12
2023-05-19T06:57:57.013Z,16.46
2023-05-19T07:00:27.232Z,16.59
2023-05-19T07:02:57.166Z,16.91
2023-05-19T07:05:25.687Z,16.63
2023-05-19T07:07:56.141Z,16.69
2023-05-19T07:10:27.938Z,16.81
2023-05-19T07:12:58.112Z,16.97
2023-05-19T07:15:32.060Z,16.76
2023-05-19T07:18:01.079Z,16.73
2023-05-19T07:20:32.517Z,16.90
2023-05-19T07:23:03.594Z,16.88
2023-05-19T07:25:31.876Z,16.57
2023-05-19T07:28:00.165Z,16.48
2023-05-19T07:30:29.477Z,16.32
2023-05-19T07:32:58.517Z,16.61
2023-05-19T07:35:32.380Z,16.57
2023-05-19T07:38:04.728Z,16.69
2023-05-19T07:40:33.084Z,16.69
2023-05-19T07:43:02.408Z,16.88
2023-05-19T07:45:32.034Z,17.08
2023-05-19T07:48:07.075Z,17.24
2023-05-19T07:50:36.091Z,17.59
2023-05-19T07:53:06.051Z,17.19
2023-05-19T07:55:34.626Z,17.83
2023-05-19T07:58:03.152Z,17.84
2023-05-19T08:00:34.810Z,18.15
2023-05-19T08:03:03.738Z,17.52
2023-05-19T08:05:32.073Z,17.67
2023-05-19T08:08:00.280Z,17.66
2023-05-19T08:10:34.600Z,17.46
2023-05-19T08:13:03.160Z,17.59
2023-05-19T08:15:32.361Z,17.49
2023-05-19T08:18:01.809Z,17.45
2023-05-19T08:20:30.330Z,17.65
2023-05-19T08:22:58.948Z,17.29
2023-05-19T08:25:27.216Z,17.36
2023-05-19T08:27:56.904Z,17.91
2023-05-19T08:30:25.676Z,18.24
2023-05-19T08:32:53.938Z,18.80
2023-05-19T08:35:22.318Z,18.99
2023-05-19T08:37:50.798Z,18.93
2023-05-19T08:40:19.440Z,19.11
2023-05-19T08:42:48.211Z,18.98
2023-05-19T08:45:18.091Z,19.00
2023-05-19T08:47:48.141Z,18.28
2023-05-19T08:50:23.019Z,18.13
2023-05-19T08:52:54.291Z,17.82
2023-05-19T08:55:34.334Z,18.08
2023-05-19T08:58:04.857Z,18.34
2023-05-19T09:00:37.847Z,18.89
2023-05-19T09:03:18.166Z,19.50
2023-05-19T09:05:52.698Z,19.71
2023-05-19T09:08:21.005Z,18.88
2023-05-19T09:10:49.499Z,19.30
2023-05-19T09:13:17.957Z,18.98
2023-05-19T09:15:48.125Z,18.31
2023-05-19T09:18:16.382Z,18.89
2023-05-19T09:20:46.126Z,19.62
2023-05-19T09:23:16.317Z,19.69
2023-05-19T09:25:49.419Z,19.17
2023-05-19T09:28:25.344Z,20.55
2023-05-19T09:31:06.282Z,20.78
2023-05-19T09:33:36.522Z,20.98
2023-05-19T09:36:06.673Z,19.68
2023-05-19T09:38:36.673Z,19.46
2023-05-19T09:41:06.350Z,18.90
2023-05-19T09:43:35.917Z,19.11
2023-05-19T09:46:12.164Z,19.54
2023-05-19T09:48:42.891Z,20.36
2023-05-19T09:51:11.785Z,21.03
2023-05-19T09:53:40.152Z,21.21
2023-05-19T09:56:10.451Z,21.29
2023-05-19T09:58:39.379Z,20.94
2023-05-19T10:01:10.952Z,20.54
2023-05-19T10:03:40.872Z,20.29
2023-05-19T10:06:09.444Z,19.83
2023-05-19T10:08:38.926Z,20.17
2023-05-19T10:11:08.467Z,20.46
2023-05-19T10:13:39.804Z,21.01
2023-05-19T10:16:20.160Z,21.19
2023-05-19T10:18:50.695Z,21.98
2023-05-19T10:21:20.859Z,22.18
2023-05-19T10:23:50.388Z,22.46
2023-05-19T10:26:19.549Z,22.59
2023-05-19T10:28:49.537Z,20.17
2023-05-19T10:31:24.414Z,20.44
2023-05-19T10:34:13.799Z,20.54
2023-05-19T10:36:48.873Z,20.82
2023-05-19T10:39:20.936Z,21.05
2023-05-19T10:42:00.255Z,20.68
2023-05-19T10:44:42.106Z,20.34
2023-05-19T10:47:12.569Z,20.98
2023-05-19T10:49:46.942Z,21.64
2023-05-19T10:52:30.137Z,21.77
2023-05-19T10:54:59.333Z,21.47
2023-05-19T10:57:32.387Z,22.02
2023-05-19T11:00:11.496Z,22.62
2023-05-19T11:02:45.336Z,22.65
2023-05-19T11:05:18.529Z,22.97
2023-05-19T11:08:02.168Z,22.21
2023-05-19T11:10:34.581Z,22.49
2023-05-19T11:13:03.729Z,23.15
2023-05-19T11:15:40.724Z,23.00
2023-05-19T11:18:20.573Z,23.07
2023-05-19T11:21:02.699Z,23.02
2023-05-19T11:23:35.775Z,23.15
2023-05-19T11:26:04.271Z,23.13
2023-05-19T11:28:34.236Z,22.31
2023-05-19T11:31:04.140Z,22.27
2023-05-19T11:33:36.890Z,21.98
2023-05-19T11:36:10.262Z,21.84
2023-05-19T11:38:40.759Z,21.57
2023-05-19T11:41:09.294Z,22.04
2023-05-19T11:43:42.523Z,22.09
2023-05-19T11:46:11.388Z,23.42
2023-05-19T11:48:41.314Z,23.20
2023-05-19T11:51:13.356Z,22.75
2023-05-19T11:53:46.138Z,22.73
2023-05-19T11:56:18.601Z,22.04
2023-05-19T11:58:47.376Z,22.38
2023-05-19T12:01:16.239Z,22.53
2023-05-19T12:03:46.599Z,21.77
2023-05-19T12:06:18.991Z,22.32
2023-05-19T12:08:47.270Z,22.56
2023-05-19T12:11:16.992Z,22.87
2023-05-19T12:13:46.495Z,22.53
2023-05-19T12:16:14.883Z,23.02
2023-05-19T12:18:45.357Z,23.63
2023-05-19T12:21:17.457Z,22.60
2023-05-19T12:23:46.615Z,24.27
2023-05-19T12:26:16.420Z,23.65
2023-05-19T12:28:54.031Z,23.50
2023-05-19T12:31:23.576Z,23.20
2023-05-19T12:33:53.944Z,23.02
2023-05-19T12:36:24.970Z,23.27
2023-05-19T12:38:55.846Z,23.13
2023-05-19T12:41:27.303Z,22.93
2023-05-19T12:43:56.749Z,22.72
2023-05-19T12:46:25.148Z,23.17
2023-05-19T12:49:01.026Z,23.48
2023-05-19T12:51:29.590Z,23.75
2023-05-19T12:53:58.484Z,23.71
2023-05-19T12:56:28.098Z,23.82
2023-05-19T12:58:56.728Z,23.37
2023-05-19T13:01:25.440Z,23.79
2023-05-19T13:03:55.639Z,23.55
2023-05-19T13:06:24.846Z,23.17
2023-05-19T13:08:53.443Z,23.03
2023-05-19T13:11:21.898Z,22.41
2023-05-19T13:13:53.075Z,23.00
2023-05-19T13:16:21.681Z,23.52
2023-05-19T13:18:53.749Z,23.15
2023-05-19T13:21:24.994Z,23.06
2023-05-19T13:23:59.642Z,23.66
2023-05-19T13:26:31.267Z,23.50
2023-05-19T13:28:59.889Z,23.66
2023-05-19T13:31:28.575Z,23.73
2023-05-19T13:33:56.818Z,23.89
2023-05-19T13:36:29.558Z,23.32
2023-05-19T13:39:01.483Z,23.41
2023-05-19T13:41:30.374Z,23.54
2023-05-19T13:43:59.791Z,23.75
2023-05-19T13:46:43.863Z,23.58
2023-05-19T13:49:13.943Z,23.86
2023-05-19T13:51:45.181Z,23.75
2023-05-19T13:54:14.035Z,23.58
2023-05-19T13:56:46.143Z,23.86
2023-05-19T13:59:18.620Z,23.63
2023-05-19T14:01:47.061Z,23.58
2023-05-19T14:04:20.203Z,24.08
2023-05-19T14:06:50.629Z,24.03
2023-05-19T14:09:19.685Z,23.82
2023-05-19T14:11:50.333Z,23.93
2023-05-19T14:14:20.387Z,24.12
2023-05-19T14:16:52.684Z,23.88
2023-05-19T14:19:21.079Z,23.55
2023-05-19T14:21:58.806Z,23.85
2023-05-19T14:24:27.388Z,24.02
2023-05-19T14:26:59.338Z,24.34
2023-05-19T14:29:28.056Z,24.16
2023-05-19T14:31:57.631Z,24.08
2023-05-19T14:34:32.594Z,23.73
2023-05-19T14:37:07.313Z,23.98
2023-05-19T14:39:36.815Z,24.20
2023-05-19T14:42:08.143Z,23.78
2023-05-19T14:44:38.405Z,24.13
2023-05-19T14:47:08.482Z,24.31
2023-05-19T14:49:36.972Z,23.93
2023-05-19T14:52:10.342Z,24.23
2023-05-19T14:54:38.599Z,24.12
2023-05-19T14:57:08.245Z,24.02
2023-05-19T14:59:38.612Z,24.23
2023-05-19T15:02:07.420Z,24.29
2023-05-19T15:04:40.683Z,24.54
2023-05-19T15:07:15.618Z,24.64
2023-05-19T15:09:47.290Z,24.36
2023-05-19T15:12:15.831Z,24.40
2023-05-19T15:14:44.053Z,24.67
2023-05-19T15:17:13.794Z,24.24
2023-05-19T15:19:42.929Z,24.36
2023-05-19T15:22:13.309Z,24.30
2023-05-19T15:24:42.385Z,24.69
2023-05-19T15:27:11.094Z,24.16
2023-05-19T15:29:43.509Z,24.17
2023-05-19T15:32:12.494Z,24.46
2023-05-19T15:34:43.572Z,24.78
2023-05-19T15:37:14.252Z,24.53
2023-05-19T15:39:43.012Z,23.86
2023-05-19T15:42:11.382Z,23.98
2023-05-19T15:44:41.996Z,24.02
2023-05-19T15:47:10.543Z,23.73
2023-05-19T15:49:38.994Z,23.65
2023-05-19T15:52:09.005Z,23.68
2023-05-19T15:54:38.856Z,23.80
2023-05-19T15:57:09.748Z,23.66
2023-05-19T15:59:38.153Z,23.37
2023-05-19T16:02:06.955Z,23.32
2023-05-19T16:04:36.667Z,23.52
2023-05-19T16:07:05.397Z,23.63
2023-05-19T16:09:33.941Z,23.82
2023-05-19T16:12:07.002Z,23.79
2023-05-19T16:14:36.950Z,23.85
2023-05-19T16:17:11.251Z,23.73
2023-05-19T16:19:40.026Z,23.45
2023-05-19T16:22:09.264Z,23.40
2023-05-19T16:24:38.042Z,23.44
2023-05-19T16:27:08.218Z,23.27
2023-05-19T16:29:38.042Z,23.23
2023-05-19T16:32:08.710Z,23.00
2023-05-19T16:34:37.457Z,22.94
2023-05-19T16:37:06.182Z,22.87
2023-05-19T16:39:43.777Z,22.69
2023-05-19T16:42:16.526Z,22.45
2023-05-19T16:44:45.356Z,22.42
2023-05-19T16:47:13.992Z,22.19
2023-05-19T16:49:44.192Z,22.01
2023-05-19T16:52:22.104Z,21.77
2023-05-19T16:54:54.761Z,21.60
2023-05-19T16:57:32.355Z,21.66
2023-05-19T17:00:01.846Z,21.42
2023-05-19T17:02:30.593Z,21.30
2023-05-19T17:04:59.430Z,21.16
2023-05-19T17:07:29.308Z,21.19
2023-05-19T17:09:59.941Z,21.06
2023-05-19T17:12:32.133Z,20.95
2023-05-19T17:15:01.660Z,20.78
2023-05-19T17:17:30.027Z,20.64
2023-05-19T17:19:58.536Z,20.51
2023-05-19T17:22:28.818Z,20.32
2023-05-19T17:24:58.969Z,20.23
2023-05-19T17:27:27.529Z,20.16
2023-05-19T17:29:59.208Z,20.05
2023-05-19T17:32:29.249Z,19.89
2023-05-19T17:35:00.242Z,19.85
2023-05-19T17:37:30.207Z,19.75
2023-05-19T17:40:05.837Z,19.69
2023-05-19T17:42:34.377Z,19.55
2023-05-19T17:45:07.685Z,19.47
2023-05-19T17:47:36.974Z,19.37
2023-05-19T17:50:05.775Z,19.26
2023-05-19T17:52:35.348Z,19.19
2023-05-19T17:55:07.131Z,19.04
2023-05-19T17:57:36.558Z,18.96
2023-05-19T18:00:10.139Z,18.85
2023-05-19T18:02:40.299Z,18.76
2023-05-19T18:05:12.710Z,18.65
2023-05-19T18:07:43.934Z,18.51
2023-05-19T18:10:22.636Z,18.31
2023-05-19T18:12:51.233Z,18.18
2023-05-19T18:15:21.060Z,18.03
2023-05-19T18:17:52.530Z,17.84
2023-05-19T18:20:23.898Z,17.73
2023-05-19T18:22:58.861Z,17.65
2023-05-19T18:25:29.085Z,17.55
2023-05-19T18:28:00.230Z,17.45
2023-05-19T18:30:32.558Z,17.42
2023-05-19T18:33:04.087Z,17.38
2023-05-19T18:35:35.714Z,17.35
2023-05-19T18:38:04.034Z,17.19
2023-05-19T18:40:36.484Z,17.10
2023-05-19T18:43:05.943Z,17.03
2023-05-19T18:45:39.143Z,16.95
2023-05-19T18:48:10.338Z,16.87
2023-05-19T18:50:41.328Z,16.83
2023-05-19T18:53:09.786Z,16.76
2023-05-19T18:55:42.404Z,16.69
2023-05-19T18:58:15.366Z,16.55
2023-05-19T19:00:46.864Z,16.43
2023-05-19T19:03:23.724Z,16.33
2023-05-19T19:05:57.521Z,16.23
2023-05-19T19:08:27.820Z,16.22
2023-05-19T19:11:00.328Z,16.18
2023-05-19T19:13:29.952Z,16.12
2023-05-19T19:16:05.427Z,15.97
2023-05-19T19:18:36.412Z,15.88
2023-05-19T19:21:13.313Z,15.82
2023-05-19T19:23:41.530Z,15.74
2023-05-19T19:26:09.991Z,15.64
2023-05-19T19:28:38.598Z,15.60
2023-05-19T19:31:14.353Z,15.61
2023-05-19T19:33:43.551Z,15.65
2023-05-19T19:36:12.713Z,15.65
2023-05-19T19:38:44.280Z,15.67
2023-05-19T19:41:15.394Z,15.63
2023-05-19T19:43:49.660Z,15.63
2023-05-19T19:46:25.150Z,15.58
2023-05-19T19:48:57.503Z,15.63
2023-05-19T19:51:29.373Z,15.64
2023-05-19T19:53:58.709Z,15.70
2023-05-19T19:56:27.682Z,15.71
2023-05-19T19:58:59.560Z,15.78
2023-05-19T20:01:30.100Z,15.84
2023-05-19T20:04:01.063Z,15.84
2023-05-19T20:06:29.519Z,15.82
2023-05-19T20:09:00.843Z,15.88
2023-05-19T20:11:32.265Z,15.84
2023-05-19T20:14:05.328Z,15.80
2023-05-19T20:16:40.882Z,15.67
2023-05-19T20:19:14.644Z,15.39
2023-05-19T20:21:45.835Z,15.37
2023-05-19T20:24:24.439Z,15.53
2023-05-19T20:26:56.005Z,15.63
2023-05-19T20:29:27.506Z,15.63
2023-05-19T20:32:08.955Z,15.63
2023-05-19T20:34:42.210Z,15.71
2023-05-19T20:37:10.882Z,15.61
2023-05-19T20:39:39.961Z,15.58
2023-05-19T20:42:11.927Z,15.64
2023-05-19T20:44:40.854Z,15.68
2023-05-19T20:47:12.179Z,15.74
2023-05-19T20:49:40.613Z,15.70
2023-05-19T20:52:09.309Z,15.68
2023-05-19T20:54:43.258Z,15.71
2023-05-19T20:57:15.428Z,15.68
2023-05-19T20:59:49.095Z,15.64
2023-05-19T21:02:22.869Z,15.63
2023-05-19T21:04:52.541Z,15.60
2023-05-19T21:07:27.346Z,15.57
2023-05-19T21:09:57.716Z,15.65
2023-05-19T21:12:34.395Z,15.68
2023-05-19T21:15:03.820Z,15.60
2023-05-19T21:17:41.222Z,15.63
2023-05-19T21:20:12.870Z,15.58
2023-05-19T21:22:43.484Z,15.51
2023-05-19T21:25:17.226Z,15.51
2023-05-19T21:27:46.443Z,15.50
2023-05-19T21:30:16.470Z,15.37
2023-05-19T21:32:47.460Z,15.39
2023-05-19T21:35:17.200Z,15.32
2023-05-19T21:37:50.373Z,15.29
2023-05-19T21:40:19.537Z,15.20
2023-05-19T21:42:50.191Z,15.10
2023-05-19T21:45:23.390Z,14.96
2023-05-19T21:47:53.535Z,14.82
2023-05-19T21:50:25.175Z,14.71
2023-05-19T21:52:55.486Z,14.71
2023-05-19T21:55:24.754Z,14.64
2023-05-19T21:57:53.088Z,14.56
2023-05-19T22:00:25.770Z,14.41
2023-05-19T22:02:57.505Z,14.40
2023-05-19T22:05:28.151Z,14.41
2023-05-19T22:08:01.265Z,14.48
2023-05-19T22:10:33.251Z,14.48
2023-05-19T22:13:05.035Z,14.47
2023-05-19T22:15:36.463Z,14.49
2023-05-19T22:18:07.014Z,14.61
2023-05-19T22:20:37.850Z,14.61
2023-05-19T22:23:11.105Z,14.72
2023-05-19T22:25:41.439Z,14.65
2023-05-19T22:28:16.083Z,14.68
2023-05-19T22:30:53.664Z,14.68
2023-05-19T22:33:24.993Z,14.67
2023-05-19T22:35:53.558Z,14.65
2023-05-19T22:38:27.208Z,14.74
2023-05-19T22:40:57.473Z,14.78
2023-05-19T22:43:34.105Z,14.79
2023-05-19T22:46:04.708Z,14.79
2023-05-19T22:48:34.581Z,14.75
2023-05-19T22:51:10.979Z,14.75
2023-05-19T22:53:41.987Z,14.74
2023-05-19T22:56:13.618Z,14.69
2023-05-19T22:58:49.890Z,14.68
2023-05-19T23:01:19.300Z,14.54
2023-05-19T23:03:50.785Z,14.56
2023-05-19T23:06:19.602Z,14.45
2023-05-19T23:08:48.109Z,14.36
2023-05-19T23:11:19.100Z,14.27
2023-05-19T23:13:47.676Z,14.26
2023-05-19T23:16:19.556Z,14.24
2023-05-19T23:18:48.628Z,14.12
2023-05-19T23:21:22.832Z,14.09
2023-05-19T23:23:55.615Z,14.00
2023-05-19T23:26:24.242Z,13.93
2023-05-19T23:28:52.772Z,13.90
2023-05-19T23:31:21.661Z,13.92
2023-05-19T23:33:50.755Z,13.90
2023-05-19T23:36:21.012Z,13.95
2023-05-19T23:38:51.410Z,14.00
2023-05-19T23:41:24.058Z,13.92
2023-05-19T23:43:58.393Z,13.86
2023-05-19T23:46:26.944Z,13.80
2023-05-19T23:48:57.200Z,13.87
2023-05-19T23:51:28.247Z,13.82
2023-05-19T23:53:56.688Z,13.78
2023-05-19T23:56:25.081Z,14.12
2023-05-19T23:58:56.985Z,14.12
